createdAt,value
2022-08-28T10:23:17.881Z,99884.94
2022-08-28T10:26:35.826Z,99907.03
2022-08-28T10:29:51.254Z,99888.03
2022-08-28T10:33:15.806Z,99907.69
2022-08-28T10:36:07.716Z,99880.72
2022-08-28T10:39:22.473Z,99914.56
2022-08-28T10:42:08.398Z,99885.53
2022-08-28T10:45:04.824Z,99909.31
2022-08-28T10:47:59.704Z,99918.06
2022-08-28T10:51:02.487Z,99886.06
2022-08-28T10:53:55.986Z,99905.69
2022-08-28T10:56:56.111Z,99875.75
2022-08-28T10:59:44.624Z,99898.34
2022-08-28T11:02:30.973Z,99900.88
2022-08-28T11:05:21.811Z,99902.47
2022-08-28T11:08:23.664Z,99880.97
2022-08-28T11:11:14.947Z,99894.03
2022-08-28T11:14:01.863Z,99894.03
2022-08-28T11:16:50.206Z,99898.78
2022-08-28T11:19:45.497Z,99915.56
2022-08-28T11:22:43.813Z,99913.69
2022-08-28T11:25:45.873Z,99901.47
2022-08-28T11:28:36.869Z,99919.72
2022-08-28T11:31:30.939Z,99891.47
2022-08-28T11:34:54.768Z,99916.50
2022-08-28T11:37:46.695Z,99926.53
2022-08-28T11:40:32.704Z,99923.84
2022-08-28T11:43:34.884Z,99916.75
2022-08-28T11:46:31.439Z,99911.59
2022-08-28T11:49:23.635Z,99898.63
2022-08-28T11:52:42.441Z,99918.81
2022-08-28T11:55:55.626Z,99884.66
2022-08-28T11:59:11.739Z,99912.59
2022-08-28T12:02:36.869Z,99910.22
2022-08-28T12:05:32.162Z,99917.72
2022-08-28T12:08:39.736Z,99918.09
2022-08-28T12:11:44.943Z,99921.97
2022-08-28T12:14:41.390Z,99919.97
2022-08-28T12:17:43.580Z,99918.06
2022-08-28T12:20:36.106Z,99918.81
2022-08-28T12:23:39.858Z,99909.16
2022-08-28T12:26:30.401Z,99882.53
2022-08-28T12:29:38.388Z,99914.97
2022-08-28T12:32:46.518Z,99908.19
2022-08-28T12:35:32.185Z,99861.38
2022-08-28T12:38:21.767Z,99892.53
2022-08-28T12:41:17.189Z,99878.22
2022-08-28T12:44:06.505Z,99913.97
2022-08-28T12:46:52.733Z,99910.00
2022-08-28T12:49:39.109Z,99907.63
2022-08-28T12:52:27.256Z,99883.78
2022-08-28T12:55:13.357Z,99868.75
2022-08-28T12:57:59.393Z,99917.59
2022-08-28T13:00:53.064Z,99910.78
2022-08-28T13:03:49.752Z,99911.97
2022-08-28T13:06:38.578Z,99911.22
2022-08-28T13:09:26.665Z,99911.63
2022-08-28T13:12:54.925Z,99912.50
2022-08-28T13:15:57.648Z,99901.84
2022-08-28T13:18:47.521Z,99909.38
2022-08-28T13:21:58.708Z,99888.31
2022-08-28T13:24:48.338Z,99882.34
2022-08-28T13:27:34.581Z,99914.19
2022-08-28T13:30:29.409Z,99883.56
2022-08-28T13:33:16.232Z,99909.38
2022-08-28T13:36:21.406Z,99895.13
2022-08-28T13:39:07.309Z,99880.34
2022-08-28T13:41:56.169Z,99886.44
2022-08-28T13:44:52.824Z,99913.06
2022-08-28T13:47:38.672Z,99875.34
2022-08-28T13:50:24.785Z,99900.66
2022-08-28T13:53:11.419Z,99910.25
2022-08-28T13:56:00.278Z,99898.34
2022-08-28T13:58:47.839Z,99901.03
2022-08-28T14:02:02.254Z,99905.50
2022-08-28T14:04:48.249Z,99886.06
2022-08-28T14:07:34.522Z,99895.59
2022-08-28T14:10:21.716Z,99903.91
2022-08-28T14:13:08.286Z,99894.00
2022-08-28T14:15:55.929Z,99880.06
2022-08-28T14:18:42.382Z,99904.66
2022-08-28T14:21:29.427Z,99859.72
2022-08-28T14:24:15.366Z,99893.09
2022-08-28T14:27:02.606Z,99886.81
2022-08-28T14:29:49.280Z,99890.81
2022-08-28T14:32:37.507Z,99911.63
2022-08-28T14:35:26.305Z,99865.13
2022-08-28T14:38:13.362Z,99914.53
2022-08-28T14:40:58.994Z,99890.69
2022-08-28T14:43:45.541Z,99905.06
2022-08-28T14:46:36.260Z,99908.31
2022-08-28T14:49:23.267Z,99908.75
2022-08-28T14:52:09.032Z,99907.97
2022-08-28T14:54:55.643Z,99900.84
2022-08-28T14:57:42.255Z,99906.91
2022-08-28T15:00:31.515Z,99906.09
2022-08-28T15:03:18.914Z,99892.66
2022-08-28T15:06:09.015Z,99912.56
2022-08-28T15:09:01.412Z,99877.19
2022-08-28T15:11:47.467Z,99915.81
2022-08-28T15:14:36.499Z,99903.91
2022-08-28T15:17:33.671Z,99921.50
2022-08-28T15:20:20.979Z,99909.66
2022-08-28T15:23:08.068Z,99894.22
2022-08-28T15:25:54.147Z,99895.00
2022-08-28T15:28:40.366Z,99887.88
2022-08-28T15:31:26.625Z,99932.22
2022-08-28T15:34:19.869Z,99895.97
2022-08-28T15:37:07.706Z,99912.72
2022-08-28T15:40:12.814Z,99900.84
2022-08-28T15:42:58.522Z,99922.78
2022-08-28T15:45:45.441Z,99932.84
2022-08-28T15:48:32.134Z,99907.44
2022-08-28T15:51:23.870Z,99932.53
2022-08-28T15:54:12.632Z,99876.81
2022-08-28T15:56:59.175Z,99939.41
2022-08-28T15:59:50.306Z,99901.59
2022-08-28T16:02:38.503Z,99938.25
2022-08-28T16:05:28.045Z,99935.91
2022-08-28T16:08:17.361Z,99902.06
2022-08-28T16:11:04.158Z,99948.31
2022-08-28T16:13:50.983Z,99944.75
2022-08-28T16:16:37.262Z,99948.75
2022-08-28T16:19:26.944Z,99944.78
2022-08-28T16:22:34.152Z,99944.00
2022-08-28T16:25:20.511Z,99947.25
2022-08-28T16:28:06.902Z,99917.34
2022-08-28T16:30:53.177Z,99914.94
2022-08-28T16:33:42.037Z,99928.16
2022-08-28T16:36:31.144Z,99946.84
2022-08-28T16:39:17.240Z,99931.34
2022-08-28T16:42:04.192Z,99931.34
2022-08-28T16:44:50.426Z,99940.09
2022-08-28T16:47:36.840Z,99892.69
2022-08-28T16:50:23.665Z,99909.78
2022-08-28T16:53:10.689Z,99907.84
2022-08-28T16:55:57.160Z,99925.34
2022-08-28T16:58:44.278Z,99942.94
2022-08-28T17:01:30.441Z,99934.22
2022-08-28T17:04:17.873Z,99920.69
2022-08-28T17:07:04.378Z,99922.31
2022-08-28T17:09:52.972Z,99962.19
2022-08-28T17:12:39.892Z,99965.03
2022-08-28T17:15:27.031Z,99922.75
2022-08-28T17:18:13.432Z,99943.06
2022-08-28T17:21:18.090Z,99911.59
2022-08-28T17:24:04.459Z,99951.09
2022-08-28T17:26:50.967Z,99965.06
2022-08-28T17:29:39.501Z,99969.84
2022-08-28T17:32:30.123Z,99970.28
2022-08-28T17:35:17.011Z,99955.91
2022-08-28T17:38:03.471Z,99957.16
2022-08-28T17:40:49.283Z,99970.31
2022-08-28T17:43:37.357Z,99987.47
2022-08-28T17:46:23.070Z,99986.31
2022-08-28T17:49:10.144Z,99980.31
2022-08-28T17:51:56.324Z,99973.13
2022-08-28T17:54:45.252Z,99987.91
2022-08-28T17:57:31.662Z,100032.22
2022-08-28T18:00:18.911Z,100033.81
2022-08-28T18:03:07.865Z,100014.66
2022-08-28T18:05:53.951Z,100009.44
2022-08-28T18:08:39.768Z,100040.19
2022-08-28T18:11:25.831Z,100013.44
2022-08-28T18:14:11.956Z,100035.00
2022-08-28T18:16:58.306Z,100039.38
2022-08-28T18:19:44.714Z,100030.59
2022-08-28T18:22:31.512Z,100002.25
2022-08-28T18:25:36.410Z,100052.16
2022-08-28T18:28:24.280Z,100033.78
2022-08-28T18:31:11.910Z,100052.16
2022-08-28T18:33:59.154Z,100055.72
2022-08-28T18:36:44.944Z,100018.53
2022-08-28T18:39:31.399Z,100056.91
2022-08-28T18:42:18.217Z,100048.88
2022-08-28T18:45:07.745Z,100076.03
2022-08-28T18:47:53.852Z,100006.47
2022-08-28T18:50:43.200Z,100086.00
2022-08-28T18:53:31.896Z,100082.38
2022-08-28T18:56:19.870Z,100053.59
2022-08-28T18:59:07.773Z,100075.97
2022-08-28T19:01:53.861Z,100062.38
2022-08-28T19:04:42.747Z,100037.97
2022-08-28T19:07:28.937Z,100099.53
2022-08-28T19:10:32.754Z,100065.19
2022-08-28T19:13:19.785Z,100056.00
2022-08-28T19:16:05.750Z,100077.56
2022-08-28T19:18:54.714Z,100050.81
2022-08-28T19:21:41.554Z,100071.94
2022-08-28T19:24:33.695Z,100069.09
2022-08-28T19:27:19.674Z,100094.66
2022-08-28T19:30:08.547Z,100065.84
2022-08-28T19:32:55.574Z,100075.09
2022-08-28T19:35:41.918Z,100071.50
2022-08-28T19:38:30.868Z,100087.88
2022-08-28T19:41:17.644Z,100071.47
2022-08-28T19:44:05.092Z,100106.63
2022-08-28T19:46:51.566Z,100122.56
2022-08-28T19:49:37.531Z,100089.00
2022-08-28T19:52:23.927Z,100125.78
2022-08-28T19:55:22.940Z,100087.03
2022-08-28T19:58:10.681Z,100114.63
2022-08-28T20:00:57.426Z,100098.28
2022-08-28T20:03:45.512Z,100113.88
2022-08-28T20:06:32.659Z,100113.81
2022-08-28T20:09:18.876Z,100113.78
2022-08-28T20:12:06.219Z,100117.38
2022-08-28T20:14:52.650Z,100113.00
2022-08-28T20:17:43.746Z,100123.75
2022-08-28T20:20:39.334Z,100119.78
2022-08-28T20:23:24.875Z,100117.00
2022-08-28T20:26:11.981Z,100139.75
2022-08-28T20:28:57.875Z,100125.78
2022-08-28T20:31:47.406Z,100125.78
2022-08-28T20:34:33.527Z,100148.91
2022-08-28T20:37:19.547Z,100141.69
2022-08-28T20:40:09.911Z,100158.84
2022-08-28T20:42:58.638Z,100152.47
2022-08-28T20:45:44.697Z,100148.00
2022-08-28T20:48:34.486Z,100144.38
2022-08-28T20:51:41.784Z,100172.00
2022-08-28T20:54:33.799Z,100169.91
2022-08-28T20:57:21.441Z,100159.53
2022-08-28T21:00:09.907Z,100169.53
2022-08-28T21:02:57.628Z,100155.53
2022-08-28T21:05:47.674Z,100170.78
2022-08-28T21:08:35.147Z,100150.75
2022-08-28T21:11:21.500Z,100176.38
2022-08-28T21:14:07.667Z,100091.06
2022-08-28T21:16:53.309Z,100167.91
2022-08-28T21:19:40.762Z,100177.88
2022-08-28T21:22:27.834Z,100171.47
2022-08-28T21:25:15.880Z,100180.28
2022-08-28T21:28:04.637Z,100158.25
2022-08-28T21:30:50.791Z,100193.84
2022-08-28T21:33:37.733Z,100192.22
2022-08-28T21:36:23.879Z,100201.44
2022-08-28T21:39:11.397Z,100205.81
2022-08-28T21:41:57.488Z,100200.59
2022-08-28T21:44:52.024Z,100160.22
2022-08-28T21:47:38.152Z,100195.84
2022-08-28T21:50:24.247Z,100200.66
2022-08-28T21:53:10.557Z,100204.28
2022-08-28T21:55:59.033Z,100206.66
2022-08-28T21:58:44.988Z,100190.63
2022-08-28T22:01:32.450Z,100205.78
2022-08-28T22:04:17.976Z,100214.94
2022-08-28T22:07:05.688Z,100212.44
2022-08-28T22:09:53.216Z,100191.16
2022-08-28T22:12:39.225Z,100197.06
2022-08-28T22:15:25.479Z,100223.78
2022-08-28T22:18:13.543Z,100174.44
2022-08-28T22:21:19.481Z,100215.47
2022-08-28T22:24:06.551Z,100207.88
2022-08-28T22:26:54.432Z,100209.13
2022-08-28T22:29:43.560Z,100235.22
2022-08-28T22:32:29.409Z,100220.94
2022-08-28T22:35:15.668Z,100209.31
2022-08-28T22:38:01.523Z,100243.50
2022-08-28T22:40:47.944Z,100199.44
2022-08-28T22:43:34.381Z,100222.25
2022-08-28T22:46:21.401Z,100213.81
2022-08-28T22:49:07.625Z,100211.06
2022-08-28T22:51:54.521Z,100227.53
2022-08-28T22:54:42.284Z,100202.19
2022-08-28T22:57:28.437Z,100243.81
2022-08-28T23:00:21.343Z,100253.31
2022-08-28T23:03:08.697Z,100245.41
2022-08-28T23:05:56.427Z,100233.41
2022-08-28T23:08:43.226Z,100242.59
2022-08-28T23:11:29.218Z,100226.94
2022-08-28T23:14:15.352Z,100198.16
2022-08-28T23:17:02.722Z,100211.25
2022-08-28T23:19:49.105Z,100192.53
2022-08-28T23:22:35.990Z,100200.22
2022-08-28T23:25:23.376Z,100222.16
2022-08-28T23:28:09.093Z,100236.59
2022-08-28T23:30:56.244Z,100223.84
2022-08-28T23:33:42.310Z,100195.59
2022-08-28T23:36:28.983Z,100194.53
2022-08-28T23:39:15.020Z,100238.78
2022-08-28T23:42:05.920Z,100195.75
2022-08-28T23:44:51.534Z,100201.03
2022-08-28T23:47:40.463Z,100239.53
2022-08-28T23:50:26.909Z,100185.84
2022-08-28T23:53:13.075Z,100227.09
2022-08-28T23:55:59.548Z,100205.44
2022-08-28T23:58:46.430Z,100223.47
